Pittsford, Vermont
Current Conditions -  °F | °C
As of 6:55 PM on Sunday 23 Nov 2014 (Local Time) from KRUT Reporting Station
Overcast Overcast  
Wind Chill: 40°   Ceiling: 4600
Heat Index: 45°   Visibility: 10mi
Dew Point: 37°   Wind: 9mph
Humidity: 76%   Direction: 130°SE
Pressure: 30.06"   Gusts: NA
Location:  43.71°N, 73.03°W
Report Text: KRUT 232355Z 13008KT 10SM BKN046 OVC060 07/03 A3006 RMK AO1 10120 20070 401200040 54000
Loading
Personal Weather Stations






























Interactive Weather Map New forecast layout! Learn more

10-Day Weather Forecast

Advertisements
Track Severe Weather on mobile